Time;durP1;ratioP1;P1;durP2;ratioP2;P2;SDS_P1;SDS_P2;PMS_P1;PMS_P2;Temp;Humidity;BMP_temperature;BMP_pressure;BME280_temperature;BME280_humidity;BME280_pressure;Samples;Min_cycle;Max_cycle;Signal;HPM_P1;HPM_P2
2022/08/24 00:02:06;;;;;;;0.40;0.40;;;16.00;1.00;;;;;;5072615;28;20190;-75
2022/08/24 00:04:32;;;;;;;0.30;0.30;;;16.00;1.00;;;;;;5072435;28;20566;-76
2022/08/24 00:06:58;;;;;;;0.40;0.40;;;16.00;1.00;;;;;;5072548;28;20175;-76
2022/08/24 00:09:24;;;;;;;0.30;0.30;;;16.00;1.00;;;;;;5067326;28;20236;-76
2022/08/24 00:11:49;;;;;;;0.30;0.30;;;15.90;1.00;;;;;;5070420;28;20910;-76
2022/08/24 00:14:15;;;;;;;0.30;0.30;;;15.80;6.60;;;;;;5072344;28;20190;-76
2022/08/24 00:16:41;;;;;;;0.30;0.30;;;15.80;1.00;;;;;;5072481;28;20200;-76
2022/08/24 00:19:07;;;;;;;0.40;0.40;;;15.80;1.00;;;;;;5071858;28;20232;-76
2022/08/24 00:21:32;;;;;;;0.33;0.33;;;15.70;1.00;;;;;;5072421;28;20635;-76
2022/08/24 00:23:58;;;;;;;0.30;0.30;;;15.80;1.00;;;;;;5072133;28;20309;-76
2022/08/24 00:26:24;;;;;;;0.40;0.40;;;15.70;1.00;;;;;;5071634;28;20174;-76
2022/08/24 00:28:50;;;;;;;0.30;0.30;;;15.60;1.00;;;;;;5072174;28;20573;-76
2022/08/24 00:31:16;;;;;;;0.30;0.30;;;15.70;1.00;;;;;;5072008;28;20213;-76
2022/08/24 00:33:42;;;;;;;0.50;0.50;;;15.70;1.00;;;;;;5072000;28;20593;-76
2022/08/24 00:36:08;;;;;;;0.30;0.30;;;15.60;1.00;;;;;;5072107;28;20722;-76
2022/08/24 00:38:34;;;;;;;0.40;0.40;;;15.60;1.00;;;;;;5071994;28;20189;-76
2022/08/24 00:41:00;;;;;;;0.30;0.30;;;15.60;1.00;;;;;;5071607;28;20213;-76
2022/08/24 00:43:27;;;;;;;0.30;0.30;;;15.40;6.30;;;;;;5071855;28;20683;-76
2022/08/24 00:46:16;;;;;;;0.33;0.33;;;15.40;1.00;;;;;;5071876;28;20639;-75
2022/08/24 00:48:46;;;;;;;0.30;0.30;;;15.40;1.00;;;;;;5071584;28;20175;-75
2022/08/24 00:51:23;;;;;;;0.30;0.30;;;15.30;1.00;;;;;;5071348;28;20244;-76
2022/08/24 00:53:54;;;;;;;0.40;0.40;;;15.30;1.00;;;;;;5071775;28;20193;-75
2022/08/24 00:56:26;;;;;;;0.30;0.30;;;15.30;1.00;;;;;;5071913;28;20304;-76
2022/08/24 00:59:00;;;;;;;0.30;0.30;;;15.30;1.00;;;;;;5071013;28;20209;-76
2022/08/24 01:01:29;;;;;;;0.40;0.40;;;15.30;1.00;;;;;;5071556;28;20170;-76
2022/08/24 01:03:56;;;;;;;0.40;0.40;;;15.30;41.00;;;;;;5071526;28;20213;-76
2022/08/24 01:06:23;;;;;;;0.40;0.40;;;15.30;42.30;;;;;;5071533;28;20166;-75
2022/08/24 01:08:49;;;;;;;0.40;0.40;;;15.20;57.30;;;;;;5071113;28;20185;-76
2022/08/24 01:11:23;;;;;;;0.40;0.40;;;15.20;14.60;;;;;;5070916;28;20646;-76
2022/08/24 01:13:51;;;;;;;0.40;0.40;;;15.20;17.60;;;;;;5071145;28;20190;-75
2022/08/24 01:18:48;;;;;;;0.40;0.40;;;15.10;20.10;;;;;;5071536;28;20178;-75
2022/08/24 01:19:21;;;;;;;0.50;0.50;;;15.10;25.10;;;;;;5069907;28;20214;-75
2022/08/24 01:22:00;;;;;;;0.30;0.30;;;15.10;14.60;;;;;;5071239;28;20200;-76
2022/08/24 01:24:26;;;;;;;0.50;0.50;;;15.00;28.60;;;;;;5071545;28;20240;-76
2022/08/24 01:26:52;;;;;;;0.40;0.40;;;15.00;44.90;;;;;;5071284;28;20182;-75
2022/08/24 01:29:24;;;;;;;0.40;0.40;;;15.00;31.70;;;;;;5055691;28;20651;-75
2022/08/24 01:31:50;;;;;;;0.40;0.40;;;15.00;27.00;;;;;;5071204;28;20231;-75
2022/08/24 01:34:16;;;;;;;0.50;0.50;;;15.00;28.90;;;;;;5071112;28;20209;-75
2022/08/24 01:36:46;;;;;;;0.37;0.37;;;15.00;53.00;;;;;;5070718;28;20186;-75
2022/08/24 01:39:26;;;;;;;0.40;0.40;;;15.00;45.30;;;;;;5054586;28;20218;-75
2022/08/24 01:41:52;;;;;;;0.40;0.40;;;14.70;99.90;;;;;;5071267;28;20185;-75
2022/08/24 01:44:20;;;;;;;0.40;0.40;;;14.70;99.90;;;;;;5071019;28;20738;-76
2022/08/24 01:46:48;;;;;;;0.40;0.40;;;14.50;99.90;;;;;;5070846;28;20550;-75
2022/08/24 01:49:15;;;;;;;0.40;0.40;;;14.50;99.90;;;;;;5054169;28;20193;-75
2022/08/24 01:51:41;;;;;;;0.40;0.40;;;14.60;99.90;;;;;;5070813;28;20218;-75
2022/08/24 01:54:08;;;;;;;0.40;0.40;;;14.60;99.90;;;;;;5071045;28;20207;-76
2022/08/24 01:56:35;;;;;;;0.30;0.30;;;14.60;99.90;;;;;;5071184;28;20202;-75
2022/08/24 01:59:01;;;;;;;0.53;0.53;;;14.70;95.50;;;;;;5070245;28;20255;-75
2022/08/24 02:01:29;;;;;;;0.50;0.50;;;14.70;93.90;;;;;;5070929;28;20178;-76
2022/08/24 02:03:57;;;;;;;0.40;0.40;;;14.50;99.90;;;;;;5070874;28;20677;-75
2022/08/24 02:06:23;;;;;;;0.40;0.40;;;14.40;99.90;;;;;;5070978;28;20254;-76
2022/08/24 02:08:48;;;;;;;0.40;0.40;;;14.40;99.90;;;;;;5070886;28;20670;-76
2022/08/24 02:11:14;;;;;;;0.60;0.60;;;14.40;99.90;;;;;;5070312;28;20178;-76
2022/08/24 02:13:41;;;;;;;0.50;0.50;;;14.30;99.90;;;;;;5070843;28;20195;-75
2022/08/24 02:16:07;;;;;;;0.50;0.50;;;14.30;99.90;;;;;;5070743;28;20178;-74
2022/08/24 02:18:34;;;;;;;0.40;0.40;;;14.30;99.90;;;;;;5070586;28;20178;-74
2022/08/24 02:21:01;;;;;;;0.40;0.40;;;14.20;99.90;;;;;;5070061;28;20636;-75
2022/08/24 02:23:27;;;;;;;0.40;0.40;;;14.30;99.90;;;;;;5070582;28;20292;-75
2022/08/24 02:25:53;;;;;;;0.30;0.30;;;14.20;99.90;;;;;;5070878;28;20183;-76
2022/08/24 02:28:19;;;;;;;0.50;0.50;;;14.10;99.90;;;;;;5070525;28;20186;-76
2022/08/24 02:30:45;;;;;;;0.33;0.33;;;13.90;99.90;;;;;;5070073;28;20522;-75
2022/08/24 02:33:12;;;;;;;0.43;0.43;;;13.80;99.90;;;;;;5070366;28;20687;-75
2022/08/24 02:35:38;;;;;;;0.40;0.40;;;13.80;99.90;;;;;;5070704;28;20209;-75
2022/08/24 02:38:04;;;;;;;0.50;0.50;;;13.90;99.90;;;;;;5070624;28;20266;-75
2022/08/24 02:40:31;;;;;;;0.40;0.40;;;14.00;99.90;;;;;;5070033;28;20281;-75
2022/08/24 02:42:56;;;;;;;0.40;0.40;;;14.00;99.90;;;;;;5070679;28;20237;-76
2022/08/24 02:45:22;;;;;;;0.40;0.40;;;13.90;99.90;;;;;;5069829;28;20210;-75
2022/08/24 02:47:48;;;;;;;0.40;0.40;;;13.90;99.90;;;;;;5070605;28;20186;-75
2022/08/24 02:50:15;;;;;;;0.30;0.30;;;14.00;99.90;;;;;;5072885;28;20727;-75
2022/08/24 02:52:41;;;;;;;0.30;0.30;;;14.00;99.90;;;;;;5074249;28;20308;-75
2022/08/24 02:55:11;;;;;;;0.30;0.30;;;14.00;99.90;;;;;;5073963;28;20217;-76
2022/08/24 02:57:37;;;;;;;0.30;0.30;;;13.70;99.90;;;;;;5073963;28;20178;-75
2022/08/24 03:00:07;;;;;;;0.30;0.30;;;13.70;99.90;;;;;;5073380;28;20217;-75
2022/08/24 03:02:32;;;;;;;0.37;0.37;;;13.80;99.90;;;;;;5074062;28;20190;-75
2022/08/24 03:04:58;;;;;;;0.40;0.40;;;13.80;99.90;;;;;;5067729;28;20179;-75
2022/08/24 03:07:23;;;;;;;0.33;0.33;;;13.90;99.90;;;;;;5073776;28;20185;-75
2022/08/24 03:09:49;;;;;;;0.30;0.30;;;13.90;99.90;;;;;;5073490;28;20184;-76
2022/08/24 03:12:14;;;;;;;0.30;0.30;;;13.90;99.90;;;;;;5074376;28;20247;-75
2022/08/24 03:14:40;;;;;;;0.30;0.30;;;14.00;99.90;;;;;;5073694;28;20190;-76
2022/08/24 03:17:05;;;;;;;0.40;0.40;;;13.90;99.90;;;;;;5073740;28;20198;-76
2022/08/24 03:19:32;;;;;;;0.40;0.40;;;14.00;99.90;;;;;;5068471;28;20207;-76
2022/08/24 03:21:57;;;;;;;0.40;0.40;;;14.00;99.90;;;;;;5073634;28;20179;-76
2022/08/24 03:24:23;;;;;;;0.37;0.37;;;13.90;99.90;;;;;;5073789;28;20204;-75
2022/08/24 03:26:49;;;;;;;0.40;0.40;;;13.90;99.90;;;;;;5073397;28;20194;-75
2022/08/24 03:29:14;;;;;;;0.40;0.40;;;13.90;99.90;;;;;;5072582;28;20182;-75
2022/08/24 03:31:40;;;;;;;0.40;0.40;;;13.80;99.90;;;;;;5073590;28;20225;-75
2022/08/24 03:34:06;;;;;;;0.37;0.37;;;13.80;99.90;;;;;;5073520;28;20742;-75
2022/08/24 03:36:32;;;;;;;0.30;0.30;;;13.60;99.90;;;;;;5073505;28;20651;-75
2022/08/24 03:38:57;;;;;;;0.50;0.50;;;13.30;99.90;;;;;;5072685;28;20663;-75
2022/08/24 03:41:23;;;;;;;0.40;0.40;;;13.20;99.90;;;;;;5072687;28;20635;-75
2022/08/24 03:43:49;;;;;;;0.50;0.50;;;13.40;99.90;;;;;;5072992;28;20244;-75
2022/08/24 03:46:21;;;;;;;0.50;0.50;;;13.50;99.90;;;;;;5073301;28;20210;-75
2022/08/24 03:48:47;;;;;;;0.40;0.40;;;13.50;99.90;;;;;;5072927;28;20178;-76
2022/08/24 03:51:16;;;;;;;0.37;0.37;;;13.50;99.90;;;;;;5091815;22;20237;-81
2022/08/24 03:53:42;;;;;;;0.43;0.43;;;13.40;99.90;;;;;;5061338;28;20218;-83
2022/08/24 03:56:08;;;;;;;0.30;0.30;;;13.50;99.90;;;;;;5067695;28;20182;-82
2022/08/24 03:58:36;;;;;;;0.40;0.40;;;13.50;99.90;;;;;;5068044;28;20179;-82
2022/08/24 04:01:02;;;;;;;0.47;0.47;;;13.40;99.90;;;;;;5069525;28;20187;-81
2022/08/24 04:03:28;;;;;;;0.40;0.40;;;13.40;99.90;;;;;;5070351;28;20258;-82
2022/08/24 04:05:53;;;;;;;0.40;0.40;;;13.50;99.90;;;;;;5070852;28;20209;-83
2022/08/24 04:08:19;;;;;;;0.43;0.43;;;13.50;99.90;;;;;;5070371;28;20179;-79
2022/08/24 04:10:45;;;;;;;0.50;0.50;;;13.40;99.90;;;;;;5071084;28;20183;-80
2022/08/24 04:13:11;;;;;;;0.40;0.40;;;13.50;99.90;;;;;;5070890;28;20302;-79
2022/08/24 04:15:40;;;;;;;0.50;0.50;;;13.50;99.90;;;;;;5052415;28;20178;-80
2022/08/24 04:18:05;;;;;;;0.43;0.43;;;13.50;99.90;;;;;;5070402;28;20175;-79
2022/08/24 04:20:42;;;;;;;0.40;0.40;;;13.40;99.90;;;;;;5069716;28;20226;-79
2022/08/24 04:23:09;;;;;;;0.50;0.50;;;13.40;99.90;;;;;;5070281;28;20226;-79
2022/08/24 04:25:43;;;;;;;0.40;0.40;;;13.40;99.90;;;;;;5052985;28;20208;-79
2022/08/24 04:28:10;;;;;;;0.40;0.40;;;13.30;99.90;;;;;;5069532;28;20237;-80
2022/08/24 04:30:43;;;;;;;0.50;0.50;;;13.30;99.90;;;;;;5068767;28;20190;-80
2022/08/24 04:33:11;;;;;;;0.30;0.30;;;13.30;99.90;;;;;;5069286;28;20202;-82
2022/08/24 04:35:38;;;;;;;0.50;0.50;;;13.40;99.90;;;;;;5067996;28;20182;-81
2022/08/24 04:38:04;;;;;;;0.40;0.40;;;13.30;99.90;;;;;;5065758;28;20253;-80
2022/08/24 04:40:30;;;;;;;0.40;0.40;;;13.30;99.90;;;;;;5065423;28;20241;-80
2022/08/24 04:42:57;;;;;;;0.50;0.50;;;13.30;99.90;;;;;;5065122;28;20199;-80
2022/08/24 04:45:25;;;;;;;0.40;0.40;;;13.30;99.90;;;;;;5058849;28;20708;-80
2022/08/24 04:47:50;;;;;;;0.60;0.60;;;13.30;99.90;;;;;;5051959;28;20259;-80
2022/08/24 04:50:16;;;;;;;0.40;0.40;;;13.20;99.90;;;;;;5056709;28;20180;-81
2022/08/24 04:52:42;;;;;;;0.40;0.40;;;13.20;99.90;;;;;;5054120;28;20202;-80
2022/08/24 04:55:08;;;;;;;0.40;0.40;;;13.30;99.90;;;;;;5062451;28;20196;-80
2022/08/24 04:57:34;;;;;;;0.40;0.40;;;13.50;99.90;;;;;;5059595;28;20187;-80
2022/08/24 04:59:59;;;;;;;0.30;0.30;;;13.60;99.90;;;;;;5063082;28;20290;-80
2022/08/24 05:02:26;;;;;;;0.50;0.50;;;13.40;99.90;;;;;;5063099;28;20262;-80
2022/08/24 05:04:51;;;;;;;0.40;0.40;;;13.30;99.90;;;;;;5065949;28;20191;-80
2022/08/24 05:07:18;;;;;;;0.40;0.40;;;13.30;99.90;;;;;;5066246;28;20262;-80
2022/08/24 05:09:44;;;;;;;0.40;0.40;;;13.30;99.90;;;;;;5065014;28;20221;-80
2022/08/24 05:12:10;;;;;;;0.43;0.43;;;13.50;99.90;;;;;;5064829;28;20167;-81
2022/08/24 05:14:36;;;;;;;0.40;0.40;;;13.60;99.90;;;;;;5065095;28;20199;-80
2022/08/24 05:17:02;;;;;;;0.40;0.40;;;13.80;99.90;;;;;;5065834;28;20183;-81
2022/08/24 05:19:27;;;;;;;0.40;0.40;;;13.90;99.90;;;;;;5067486;28;20214;-80
2022/08/24 05:21:53;;;;;;;0.40;0.40;;;14.10;99.90;;;;;;5067003;28;20182;-80
2022/08/24 05:24:19;;;;;;;0.40;0.40;;;14.00;99.90;;;;;;5063219;28;20496;-80
2022/08/24 05:26:44;;;;;;;0.40;0.40;;;14.10;99.90;;;;;;5050593;28;20183;-79
2022/08/24 05:29:11;;;;;;;0.40;0.40;;;14.20;99.90;;;;;;5056188;28;20182;-82
2022/08/24 05:31:36;;;;;;;0.30;0.30;;;14.20;99.90;;;;;;5052115;28;20179;-79
2022/08/24 05:34:03;;;;;;;0.40;0.40;;;14.30;99.90;;;;;;5051188;28;20273;-78
2022/08/24 05:36:37;;;;;;;0.50;0.50;;;14.20;99.90;;;;;;5050258;28;20182;-79
2022/08/24 05:39:06;;;;;;;0.40;0.40;;;14.20;99.90;;;;;;5048875;28;20551;-77
2022/08/24 05:41:33;;;;;;;0.37;0.37;;;14.30;99.90;;;;;;5050482;28;20179;-78
2022/08/24 05:43:58;;;;;;;0.30;0.30;;;14.50;99.90;;;;;;5051420;28;20196;-77
2022/08/24 05:46:24;;;;;;;0.40;0.40;;;14.80;99.90;;;;;;5048129;28;20185;-78
2022/08/24 05:48:51;;;;;;;0.40;0.40;;;14.90;99.90;;;;;;5050974;28;20187;-77
2022/08/24 05:51:16;;;;;;;0.30;0.30;;;15.10;99.90;;;;;;5046474;28;20648;-78
2022/08/24 05:53:42;;;;;;;0.30;0.30;;;14.90;99.90;;;;;;5050995;28;20202;-77
2022/08/24 05:56:14;;;;;;;0.30;0.30;;;14.90;99.90;;;;;;5051402;28;20715;-77
2022/08/24 05:58:40;;;;;;;0.30;0.30;;;15.10;99.90;;;;;;5045256;28;20187;-77
2022/08/24 06:01:19;;;;;;;0.30;0.30;;;15.20;99.90;;;;;;5049949;28;20195;-78
2022/08/24 06:03:46;;;;;;;0.40;0.40;;;15.10;99.90;;;;;;5050311;28;20211;-77
2022/08/24 06:06:13;;;;;;;0.40;0.40;;;15.00;99.90;;;;;;5051135;28;20652;-77
2022/08/24 06:08:41;;;;;;;0.33;0.33;;;15.20;99.90;;;;;;5050286;28;20183;-78
2022/08/24 06:11:06;;;;;;;0.43;0.43;;;15.50;99.90;;;;;;5051024;28;20694;-77
2022/08/24 06:13:33;;;;;;;0.33;0.33;;;15.60;93.80;;;;;;5051717;28;20207;-77
2022/08/24 06:16:07;;;;;;;0.30;0.30;;;15.70;93.30;;;;;;5050960;28;20180;-77
2022/08/24 06:18:32;;;;;;;0.40;0.40;;;15.70;65.00;;;;;;5050031;28;20246;-78
2022/08/24 06:21:04;;;;;;;0.30;0.30;;;16.00;1.00;;;;;;5052439;28;20222;-78
2022/08/24 06:23:30;;;;;;;0.37;0.37;;;16.20;1.00;;;;;;5049110;28;20195;-78
2022/08/24 06:28:41;;;;;;;0.40;0.40;;;16.10;1.10;;;;;;5053270;28;20202;-79
2022/08/24 06:31:07;;;;;;;0.40;0.40;;;16.10;1.00;;;;;;5053916;28;20183;-76
2022/08/24 06:33:33;;;;;;;0.40;0.40;;;16.10;1.00;;;;;;5052908;28;20214;-77
2022/08/24 06:35:58;;;;;;;0.40;0.40;;;16.50;1.00;;;;;;5054197;28;20552;-77
2022/08/24 06:38:24;;;;;;;0.33;0.33;;;16.80;1.00;;;;;;5051465;28;20202;-76
2022/08/24 06:40:50;;;;;;;0.47;0.47;;;17.00;1.00;;;;;;5054996;28;20587;-77
2022/08/24 06:43:15;;;;;;;0.40;0.40;;;17.10;1.00;;;;;;5054154;28;20202;-78
2022/08/24 06:45:42;;;;;;;0.30;0.30;;;17.30;1.00;;;;;;5054740;28;20187;-76
2022/08/24 06:48:08;;;;;;;0.33;0.33;;;17.70;1.00;;;;;;5054537;28;20183;-78
2022/08/24 06:50:34;;;;;;;0.40;0.40;;;17.90;99.90;;;;;;5056731;28;20579;-76
2022/08/24 06:53:00;;;;;;;0.40;0.40;;;18.10;1.00;;;;;;5054203;28;20199;-78
2022/08/24 06:55:26;;;;;;;0.40;0.40;;;18.30;1.00;;;;;;5056632;28;20210;-79
2022/08/24 06:57:52;;;;;;;0.40;0.40;;;18.50;99.90;;;;;;5054797;28;20187;-78
2022/08/24 07:00:18;;;;;;;0.30;0.30;;;18.60;99.90;;;;;;5063217;28;20256;-77
2022/08/24 07:02:44;;;;;;;0.33;0.33;;;18.80;99.90;;;;;;5068521;28;20226;-79
2022/08/24 07:05:10;;;;;;;0.40;0.40;;;19.00;99.90;;;;;;5068494;28;20191;-77
2022/08/24 07:07:35;;;;;;;0.30;0.30;;;19.20;1.00;;;;;;5066836;28;20516;-77
2022/08/24 07:10:02;;;;;;;0.30;0.30;;;19.30;1.00;;;;;;5061780;28;20182;-78
2022/08/24 07:12:27;;;;;;;0.40;0.40;;;19.30;1.00;;;;;;5060870;28;20172;-78
2022/08/24 07:14:53;;;;;;;0.37;0.37;;;19.40;99.90;;;;;;5059011;28;20179;-77
2022/08/24 07:17:18;;;;;;;0.30;0.30;;;19.90;99.90;;;;;;5057546;28;20214;-80
2022/08/24 07:19:47;;;;;;;0.30;0.30;;;20.30;99.90;;;;;;5065690;28;20292;-77
2022/08/24 07:22:12;;;;;;;0.27;0.27;;;21.00;1.00;;;;;;5065693;28;20179;-78
2022/08/24 07:24:38;;;;;;;0.20;0.20;;;21.50;1.00;;;;;;5062216;28;20267;-78
2022/08/24 07:27:05;;;;;;;0.30;0.30;;;22.30;1.00;;;;;;5060459;28;20179;-76
2022/08/24 07:29:31;;;;;;;0.30;0.30;;;22.60;1.00;;;;;;5061055;28;20204;-78
2022/08/24 07:31:57;;;;;;;0.30;0.30;;;22.30;1.00;;;;;;5059316;28;20254;-77
2022/08/24 07:34:23;;;;;;;0.30;0.30;;;22.80;1.00;;;;;;5061130;28;20226;-78
2022/08/24 07:36:49;;;;;;;0.20;0.20;;;22.60;1.00;;;;;;5061966;28;20205;-78
2022/08/24 07:39:15;;;;;;;0.27;0.27;;;22.50;1.00;;;;;;5060396;28;20261;-78
2022/08/24 07:41:43;;;;;;;0.37;0.37;;;22.60;1.00;;;;;;5060874;28;20668;-76
2022/08/24 07:44:11;;;;;;;0.30;0.30;;;22.80;1.00;;;;;;5057322;28;20186;-77
2022/08/24 07:46:39;;;;;;;0.30;0.30;;;22.90;1.00;;;;;;5058544;28;20214;-79
2022/08/24 07:49:06;;;;;;;0.30;0.30;;;23.00;1.00;;;;;;5052958;28;20171;-77
2022/08/24 07:51:31;;;;;;;0.30;0.30;;;22.90;1.00;;;;;;5055818;28;20932;-81
2022/08/24 07:53:57;;;;;;;0.30;0.30;;;23.50;1.00;;;;;;5061546;28;20282;-79
2022/08/24 07:56:23;;;;;;;0.23;0.23;;;23.80;1.00;;;;;;5058446;28;20183;-80
2022/08/24 07:58:48;;;;;;;0.30;0.30;;;24.10;1.00;;;;;;5060283;28;20187;-84
2022/08/24 08:01:14;;;;;;;0.40;0.40;;;24.50;1.00;;;;;;5056008;28;20589;-80
2022/08/24 08:03:39;;;;;;;0.30;0.30;;;24.70;1.00;;;;;;5057177;28;20199;-81
2022/08/24 08:06:07;;;;;;;0.60;0.60;;;24.90;1.00;;;;;;5061284;28;20222;-81
2022/08/24 08:08:35;;;;;;;0.53;0.53;;;25.50;1.00;;;;;;5064145;28;20361;-81
2022/08/24 08:11:02;;;;;;;0.40;0.40;;;25.40;1.00;;;;;;5065605;28;20186;-80
2022/08/24 08:13:29;;;;;;;0.60;0.60;;;25.60;1.00;;;;;;5061498;28;20202;-85
2022/08/24 08:15:55;;;;;;;0.50;0.50;;;25.60;1.00;;;;;;5062245;28;20262;-81
2022/08/24 08:18:21;;;;;;;0.57;0.57;;;25.50;1.00;;;;;;5069123;28;20553;-80
2022/08/24 08:20:47;;;;;;;0.50;0.50;;;25.90;1.00;;;;;;5065666;28;20996;-79
2022/08/24 08:26:00;;;;;;;0.50;0.50;;;26.30;1.00;;;;;;5058239;28;20868;-80
2022/08/24 08:28:31;;;;;;;0.40;0.40;;;26.80;1.00;;;;;;5057634;28;20625;-80
2022/08/24 08:31:01;;;;;;;0.30;0.30;;;27.30;1.00;;;;;;5057940;28;20198;-80
2022/08/24 08:33:27;;;;;;;0.25;0.25;;;27.70;1.00;;;;;;5058919;28;20218;-80
2022/08/24 08:36:08;;;;;;;0.20;0.20;;;28.00;1.00;;;;;;5038826;28;20191;-80
2022/08/24 08:38:35;;;;;;;0.15;0.15;;;27.30;1.00;;;;;;5055091;28;20641;-80
2022/08/24 08:41:04;;;;;;;0.05;0.05;;;28.50;1.00;;;;;;5055642;28;20218;-80
2022/08/24 08:43:35;;;;;;;0.08;0.08;;;28.20;1.00;;;;;;5054400;28;20247;-81
2022/08/24 08:46:23;;;;;;;0.35;0.35;;;27.70;1.00;;;;;;5047922;28;20634;-80
2022/08/24 08:49:07;;;;;;;0.20;0.20;;;27.70;1.00;;;;;;5056713;28;20197;-80
2022/08/24 08:52:13;;;;;;;0.30;0.30;;;28.20;1.00;;;;;;5056989;28;20189;-79
2022/08/24 08:55:01;;;;;;;0.20;0.20;;;28.40;1.00;;;;;;5049232;28;20247;-80
2022/08/24 08:57:42;;;;;;;0.30;0.30;;;28.80;1.00;;;;;;5058313;28;20206;-80
2022/08/24 09:00:30;;;;;;;0.20;0.20;;;28.60;1.00;;;;;;5057594;28;20256;-80
2022/08/24 09:03:18;;;;;;;0.20;0.20;;;28.90;1.00;;;;;;5058551;28;20277;-80
2022/08/24 09:05:57;;;;;;;0.13;0.13;;;28.80;1.00;;;;;;5055950;28;20183;-80
2022/08/24 09:08:52;;;;;;;0.20;0.20;;;28.90;1.00;;;;;;5052673;28;20697;-80
2022/08/24 09:11:43;;;;;;;0.20;0.20;;;28.70;1.00;;;;;;5053671;28;20180;-80
2022/08/24 09:14:24;;;;;;;0.30;0.30;;;28.60;1.00;;;;;;5053369;28;20219;-80
2022/08/24 09:17:01;;;;;;;0.28;0.28;;;28.60;1.00;;;;;;5057260;28;20175;-80
2022/08/24 09:19:47;;;;;;;0.20;0.20;;;28.80;1.00;;;;;;5048394;28;20303;-80
2022/08/24 09:22:18;;;;;;;0.20;0.20;;;28.90;1.00;;;;;;5057202;28;20221;-80
2022/08/24 09:24:53;;;;;;;0.30;0.30;;;28.60;1.00;;;;;;5057095;28;20178;-80
2022/08/24 09:27:58;;;;;;;0.40;0.40;;;28.30;1.00;;;;;;5060453;28;20265;-80
2022/08/24 09:30:28;;;;;;;0.30;0.30;;;28.90;1.00;;;;;;5044593;28;20237;-80
2022/08/24 09:33:20;;;;;;;0.40;0.40;;;29.30;1.00;;;;;;5057815;28;20207;-80
2022/08/24 09:36:07;;;;;;;0.30;0.30;;;29.70;1.00;;;;;;5056496;28;20187;-79
2022/08/24 09:39:10;;;;;;;0.35;0.35;;;29.50;1.00;;;;;;5054512;28;20242;-80
2022/08/24 09:42:07;;;;;;;0.60;0.60;;;29.50;1.00;;;;;;5052066;28;20741;-80
2022/08/24 09:45:11;;;;;;;0.50;0.50;;;29.60;1.00;;;;;;5048620;28;20233;-80
2022/08/24 09:48:14;;;;;;;0.35;0.35;;;29.40;1.00;;;;;;5052687;28;20244;-81
2022/08/24 09:51:13;;;;;;;0.52;0.52;;;30.10;1.00;;;;;;4951977;28;20229;-80
2022/08/24 09:54:03;;;;;;;0.43;0.43;;;30.20;1.00;;;;;;5043833;28;20575;-80
2022/08/24 09:56:53;;;;;;;0.50;0.50;;;30.30;1.00;;;;;;5047404;28;20544;-81
2022/08/24 10:00:10;;;;;;;0.57;0.57;;;30.00;1.00;;;;;;5041013;28;20212;-81
2022/08/24 10:03:30;;;;;;;0.30;0.30;;;30.30;1.00;;;;;;5044761;28;20307;-80
2022/08/24 10:06:15;;;;;;;0.30;0.30;;;30.20;1.00;;;;;;5006500;28;20218;-80
2022/08/24 10:09:18;;;;;;;0.30;0.30;;;30.20;1.00;;;;;;5047988;28;20183;-82
2022/08/24 10:11:57;;;;;;;0.50;0.50;;;30.30;1.00;;;;;;5050340;28;20179;-80
2022/08/24 10:14:52;;;;;;;0.40;0.40;;;30.40;1.00;;;;;;5034725;28;20614;-79
2022/08/24 10:17:31;;;;;;;0.10;0.10;;;31.60;1.00;;;;;;5052640;28;20167;-80
2022/08/24 10:20:15;;;;;;;0.13;0.13;;;31.60;1.00;;;;;;5054815;28;20214;-80
2022/08/24 10:22:56;;;;;;;0.50;0.50;;;30.70;1.00;;;;;;5056033;28;20194;-79
2022/08/24 10:25:34;;;;;;;0.60;0.60;;;30.10;1.00;;;;;;5051097;28;20172;-79
2022/08/24 10:28:19;;;;;;;0.57;0.57;;;30.40;1.00;;;;;;5039041;28;20182;-80
2022/08/24 10:31:01;;;;;;;0.50;0.50;;;30.60;1.00;;;;;;5050160;28;20178;-79
2022/08/24 10:33:55;;;;;;;0.45;0.45;;;31.30;1.00;;;;;;5052733;28;20203;-78
2022/08/24 10:36:43;;;;;;;0.40;0.40;;;31.10;1.00;;;;;;5056377;28;20189;-80
2022/08/24 10:39:40;;;;;;;0.50;0.50;;;31.20;1.00;;;;;;5051605;28;20538;-81
2022/08/24 10:45:48;;;;;;;0.20;0.20;;;31.90;1.00;;;;;;5054601;28;20217;-81
2022/08/24 10:48:31;;;;;;;0.50;0.50;;;32.00;1.00;;;;;;5054444;28;20217;-80
2022/08/24 10:51:15;;;;;;;0.40;0.40;;;32.40;1.00;;;;;;5052221;28;20249;-78
2022/08/24 10:53:47;;;;;;;0.30;0.30;;;32.60;1.00;;;;;;5055679;28;20194;-79
2022/08/24 10:56:19;;;;;;;0.38;0.38;;;32.30;1.00;;;;;;5050764;28;20175;-80
2022/08/24 10:59:02;;;;;;;0.47;0.47;;;32.50;1.00;;;;;;5056560;28;20345;-80
2022/08/24 11:01:33;;;;;;;0.30;0.30;;;32.40;1.00;;;;;;5036965;28;20579;-79
2022/08/24 11:04:00;;;;;;;0.40;0.40;;;31.70;1.00;;;;;;5057002;28;20195;-79
2022/08/24 11:06:30;;;;;;;0.60;0.60;;;32.20;1.00;;;;;;5056380;28;20254;-78
2022/08/24 11:09:01;;;;;;;0.40;0.40;;;31.50;1.00;;;;;;5055786;28;20179;-78
2022/08/24 11:11:36;;;;;;;0.60;0.60;;;31.30;1.00;;;;;;5055695;28;20481;-78
2022/08/24 11:14:07;;;;;;;0.50;0.50;;;31.10;1.00;;;;;;5046912;28;20663;-78
2022/08/24 11:16:39;;;;;;;0.60;0.60;;;31.60;1.00;;;;;;5053081;28;20202;-77
2022/08/24 11:19:24;;;;;;;0.68;0.68;;;31.40;1.00;;;;;;5056921;28;20179;-79
2022/08/24 11:21:53;;;;;;;0.70;0.70;;;31.20;1.00;;;;;;5057118;28;20659;-78
2022/08/24 11:24:27;;;;;;;0.60;0.60;;;31.00;1.00;;;;;;5059984;28;20566;-79
2022/08/24 11:27:04;;;;;;;0.63;0.63;;;30.70;1.00;;;;;;5058680;28;20557;-79
2022/08/24 11:29:52;;;;;;;0.60;0.60;;;30.90;1.00;;;;;;5055115;28;20175;-79
2022/08/24 11:32:44;;;;;;;0.63;0.63;;;30.70;1.00;;;;;;5057544;28;20167;-81
2022/08/24 11:35:35;;;;;;;0.60;0.60;;;31.10;1.00;;;;;;5044247;28;20211;-78
2022/08/24 11:38:17;;;;;;;0.50;0.50;;;31.20;1.00;;;;;;5050461;28;20228;-76
2022/08/24 11:41:12;;;;;;;0.70;0.70;;;31.30;1.00;;;;;;5053101;28;20211;-77
2022/08/24 11:43:58;;;;;;;0.60;0.60;;;32.00;1.00;;;;;;5045212;28;20249;-78
2022/08/24 11:46:36;;;;;;;0.60;0.60;;;32.40;1.00;;;;;;5038655;28;20175;-77
2022/08/24 11:49:21;;;;;;;0.50;0.50;;;32.70;1.00;;;;;;5051030;28;20747;-78
2022/08/24 11:52:20;;;;;;;0.63;0.63;;;32.70;1.00;;;;;;5053862;28;20667;-78
2022/08/24 11:54:59;;;;;;;0.70;0.70;;;32.00;1.00;;;;;;5045880;28;20228;-78
2022/08/24 11:57:51;;;;;;;0.70;0.70;;;31.50;1.00;;;;;;5052493;28;20199;-77
2022/08/24 12:00:22;;;;;;;0.70;0.70;;;30.40;1.00;;;;;;5051829;28;20299;-77
2022/08/24 12:03:01;;;;;;;0.50;0.50;;;30.80;1.00;;;;;;5051923;28;20214;-77
2022/08/24 12:05:43;;;;;;;0.77;0.77;;;31.80;1.00;;;;;;5047826;28;20719;-76
2022/08/24 12:08:20;;;;;;;0.55;0.55;;;31.70;1.00;;;;;;5049274;28;20681;-77
2022/08/24 12:10:50;;;;;;;0.60;0.60;;;32.20;1.00;;;;;;5040930;28;20282;-76
2022/08/24 12:13:30;;;;;;;0.60;0.60;;;32.20;1.00;;;;;;5047856;28;20188;-76
2022/08/24 12:16:20;;;;;;;0.52;0.52;;;32.20;1.00;;;;;;5046470;28;20589;-76
2022/08/24 12:19:09;;;;;;;0.70;0.70;;;31.80;1.00;;;;;;5049438;28;20190;-78
2022/08/24 12:21:38;;;;;;;0.50;0.50;;;32.10;1.00;;;;;;5048421;28;20615;-78
2022/08/24 12:24:08;;;;;;;0.60;0.60;;;32.20;1.00;;;;;;5049887;28;20230;-78
2022/08/24 12:26:41;;;;;;;0.65;0.65;;;31.80;1.00;;;;;;5046234;28;20213;-78
2022/08/24 12:29:37;;;;;;;0.52;0.52;;;31.80;1.00;;;;;;5046735;28;20527;-77
2022/08/24 12:32:08;;;;;;;0.55;0.55;;;32.30;1.00;;;;;;5047304;28;20345;-76
2022/08/24 12:34:59;;;;;;;0.60;0.60;;;31.70;1.00;;;;;;5048708;28;20944;-77
2022/08/24 12:37:36;;;;;;;0.70;0.70;;;32.20;1.00;;;;;;5047724;28;20175;-77
2022/08/24 12:40:24;;;;;;;0.57;0.57;;;32.40;1.00;;;;;;5047942;28;20216;-78
2022/08/24 12:43:16;;;;;;;0.68;0.68;;;32.50;1.00;;;;;;5037888;28;20204;-78
2022/08/24 12:45:42;;;;;;;0.60;0.60;;;32.30;1.00;;;;;;5033097;28;20185;-77
2022/08/24 12:48:16;;;;;;;0.65;0.65;;;32.20;1.00;;;;;;5046437;28;20720;-79
2022/08/24 12:51:01;;;;;;;0.60;0.60;;;32.70;1.00;;;;;;5049283;28;20267;-78
2022/08/24 12:53:45;;;;;;;0.50;0.50;;;32.30;1.00;;;;;;5055028;28;20203;-78
2022/08/24 12:56:29;;;;;;;0.50;0.50;;;32.50;1.00;;;;;;5049323;28;20184;-79
2022/08/24 12:59:33;;;;;;;0.50;0.50;;;31.10;1.00;;;;;;5055044;28;20179;-78
2022/08/24 13:02:09;;;;;;;0.60;0.60;;;30.90;1.00;;;;;;5050267;28;20217;-77
2022/08/24 13:04:51;;;;;;;0.60;0.60;;;30.50;1.00;;;;;;5055641;28;20203;-78
2022/08/24 13:07:23;;;;;;;0.60;0.60;;;30.20;1.00;;;;;;5054654;28;20567;-77
2022/08/24 13:09:52;;;;;;;0.60;0.60;;;30.50;1.00;;;;;;5054682;28;20202;-79
2022/08/24 13:12:29;;;;;;;0.50;0.50;;;30.30;1.00;;;;;;5053859;28;20724;-77
2022/08/24 13:15:20;;;;;;;0.47;0.47;;;30.00;1.00;;;;;;5050179;28;20175;-77
2022/08/24 13:17:47;;;;;;;0.57;0.57;;;30.40;1.00;;;;;;5053151;28;20183;-79
2022/08/24 13:20:22;;;;;;;0.60;0.60;;;30.20;1.00;;;;;;5053224;28;20218;-77
2022/08/24 13:23:19;;;;;;;0.50;0.50;;;30.10;1.00;;;;;;5053989;28;20206;-78
2022/08/24 13:25:50;;;;;;;0.50;0.50;;;30.00;1.00;;;;;;5052711;28;20234;-78
2022/08/24 13:28:21;;;;;;;0.43;0.43;;;30.60;1.00;;;;;;5053448;28;20179;-77
2022/08/24 13:31:08;;;;;;;0.70;0.70;;;30.80;1.00;;;;;;5053917;28;20518;-78